createdAt,value
2022-09-06T00:02:21.749Z,2.90
2022-09-06T00:04:50.024Z,3.40
2022-09-06T00:07:18.021Z,2.67
2022-09-06T00:09:47.391Z,3.47
2022-09-06T00:12:15.392Z,3.23
2022-09-06T00:14:43.396Z,3.27
2022-09-06T00:17:11.582Z,2.67
2022-09-06T00:19:39.607Z,3.47
2022-09-06T00:22:07.664Z,2.73
2022-09-06T00:24:37.180Z,3.33
2022-09-06T00:27:07.558Z,3.23
2022-09-06T00:29:35.994Z,3.37
2022-09-06T00:32:04.200Z,2.67
2022-09-06T00:34:32.239Z,2.60
2022-09-06T00:37:00.232Z,3.10
2022-09-06T00:39:28.417Z,2.40
2022-09-06T00:41:56.505Z,3.33
2022-09-06T00:44:25.903Z,2.60
2022-09-06T00:46:55.873Z,2.77
2022-09-06T00:49:28.857Z,2.93
2022-09-06T00:52:00.155Z,3.47
2022-09-06T00:54:28.637Z,3.10
2022-09-06T00:56:59.035Z,2.97
2022-09-06T00:59:30.106Z,3.10
2022-09-06T01:01:58.975Z,3.37
2022-09-06T01:04:28.481Z,2.67
2022-09-06T01:07:04.898Z,2.50
2022-09-06T01:09:45.773Z,3.00
2022-09-06T01:12:27.374Z,3.13
2022-09-06T01:15:13.653Z,2.37
2022-09-06T01:17:54.017Z,3.03
2022-09-06T01:20:52.401Z,3.37
2022-09-06T01:23:48.509Z,2.70
2022-09-06T01:26:42.259Z,3.33
2022-09-06T01:29:17.165Z,3.00
2022-09-06T01:31:50.388Z,3.00
2022-09-06T01:34:25.336Z,3.33
2022-09-06T01:37:09.927Z,2.97
2022-09-06T01:39:39.006Z,2.70
2022-09-06T01:42:11.707Z,3.80
2022-09-06T01:44:44.469Z,3.60
2022-09-06T01:47:23.187Z,2.93
2022-09-06T01:50:07.353Z,2.83
2022-09-06T01:52:41.577Z,3.20
2022-09-06T01:55:22.277Z,3.00
2022-09-06T01:58:06.942Z,2.90
2022-09-06T02:00:41.576Z,2.90
2022-09-06T02:03:16.002Z,2.77
2022-09-06T02:05:48.654Z,2.83
2022-09-06T02:08:23.526Z,2.70
2022-09-06T02:10:56.127Z,2.60
2022-09-06T02:13:27.044Z,3.00
2022-09-06T02:16:01.129Z,3.10
2022-09-06T02:18:32.658Z,2.50
2022-09-06T02:21:04.174Z,3.07
2022-09-06T02:23:38.438Z,2.90
2022-09-06T02:26:10.767Z,3.43
2022-09-06T02:28:39.042Z,2.53
2022-09-06T02:31:14.196Z,2.87
2022-09-06T02:33:46.355Z,3.00
2022-09-06T02:36:15.852Z,2.90
2022-09-06T02:38:45.960Z,3.20
2022-09-06T02:41:15.751Z,2.43
2022-09-06T02:43:44.546Z,3.27
2022-09-06T02:46:13.933Z,2.50
2022-09-06T02:48:41.988Z,2.90
2022-09-06T02:51:10.701Z,2.70
2022-09-06T02:53:38.807Z,3.10
2022-09-06T02:56:07.471Z,2.90
2022-09-06T02:58:36.019Z,2.80
2022-09-06T03:01:04.150Z,3.17
2022-09-06T03:03:33.744Z,2.60
2022-09-06T03:06:01.875Z,2.70
2022-09-06T03:08:33.562Z,3.03
2022-09-06T03:11:02.315Z,3.10
2022-09-06T03:13:30.371Z,3.07
2022-09-06T03:16:00.217Z,2.90
2022-09-06T03:18:29.890Z,3.10
2022-09-06T03:21:02.600Z,3.43
2022-09-06T03:23:31.013Z,2.90
2022-09-06T03:25:59.312Z,3.80
2022-09-06T03:28:27.913Z,3.57
2022-09-06T03:30:56.107Z,3.50
2022-09-06T03:33:24.665Z,3.10
2022-09-06T03:35:54.837Z,3.33
2022-09-06T03:38:24.600Z,3.30
2022-09-06T03:40:53.288Z,3.30
2022-09-06T03:43:23.093Z,3.73
2022-09-06T03:45:53.952Z,3.10
2022-09-06T03:48:23.851Z,3.00
2022-09-06T03:50:54.317Z,3.40
2022-09-06T03:53:25.573Z,3.80
2022-09-06T03:55:55.553Z,3.30
2022-09-06T03:58:24.868Z,3.37
2022-09-06T04:01:02.112Z,3.03
2022-09-06T04:03:30.124Z,3.47
2022-09-06T04:05:58.164Z,2.90
2022-09-06T04:08:28.108Z,3.40
2022-09-06T04:10:57.140Z,3.30
2022-09-06T04:13:28.176Z,3.77
2022-09-06T04:15:56.865Z,3.33
2022-09-06T04:18:25.235Z,3.87
2022-09-06T04:20:56.024Z,3.63
2022-09-06T04:23:25.483Z,3.50
2022-09-06T04:25:57.381Z,3.80
2022-09-06T04:28:26.665Z,3.57
2022-09-06T04:30:56.038Z,2.67
2022-09-06T04:33:25.895Z,3.60
2022-09-06T04:35:54.281Z,4.13
2022-09-06T04:38:22.516Z,3.80
2022-09-06T04:40:50.733Z,2.67
2022-09-06T04:43:20.179Z,3.47
2022-09-06T04:45:48.337Z,3.53
2022-09-06T04:48:16.711Z,3.73
2022-09-06T04:50:45.119Z,3.10
2022-09-06T04:53:13.199Z,3.00
2022-09-06T04:55:41.332Z,3.20
2022-09-06T04:58:09.392Z,4.43
2022-09-06T05:00:39.002Z,2.97
2022-09-06T05:03:07.150Z,3.93
2022-09-06T05:05:35.180Z,3.20
2022-09-06T05:08:03.502Z,4.40
2022-09-06T05:10:31.564Z,3.77
2022-09-06T05:12:59.589Z,3.10
2022-09-06T05:15:27.609Z,3.30
2022-09-06T05:18:03.957Z,3.23
2022-09-06T05:20:32.517Z,3.23
2022-09-06T05:23:00.558Z,3.27
2022-09-06T05:25:28.592Z,3.23
2022-09-06T05:27:57.017Z,4.40
2022-09-06T05:30:25.045Z,3.37
2022-09-06T05:32:53.239Z,4.00
2022-09-06T05:35:22.632Z,3.10
2022-09-06T05:37:50.627Z,3.87
2022-09-06T05:40:18.916Z,3.70
2022-09-06T05:42:47.014Z,3.90
2022-09-06T05:45:15.676Z,4.27
2022-09-06T05:47:43.772Z,3.40
2022-09-06T05:50:12.169Z,3.37
2022-09-06T05:52:42.520Z,3.00
2022-09-06T05:55:11.024Z,3.30
2022-09-06T05:57:39.460Z,3.90
2022-09-06T06:00:08.504Z,3.57
2022-09-06T06:02:36.597Z,3.73
2022-09-06T06:05:05.223Z,4.93
2022-09-06T06:07:33.200Z,7.07
2022-09-06T06:10:02.599Z,4.37
2022-09-06T06:12:30.872Z,3.90
2022-09-06T06:14:58.981Z,3.77
2022-09-06T06:17:27.731Z,3.90
2022-09-06T06:19:55.808Z,3.80
2022-09-06T06:22:23.823Z,3.60
2022-09-06T06:24:51.947Z,3.57
2022-09-06T06:27:21.392Z,3.57
2022-09-06T06:29:50.588Z,3.53
2022-09-06T06:32:18.602Z,3.00
2022-09-06T06:34:46.645Z,3.73
2022-09-06T06:37:14.858Z,3.60
2022-09-06T06:39:43.002Z,3.00
2022-09-06T06:42:11.335Z,3.50
2022-09-06T06:44:40.815Z,3.70
2022-09-06T06:47:08.877Z,4.70
2022-09-06T06:49:36.949Z,5.20
2022-09-06T06:52:05.155Z,6.03
2022-09-06T06:54:33.259Z,3.87
2022-09-06T06:57:01.316Z,3.27
2022-09-06T06:59:29.404Z,3.40
2022-09-06T07:01:58.908Z,3.50
2022-09-06T07:04:27.045Z,4.17
2022-09-06T07:12:33.251Z,4.03
2022-09-06T07:15:01.329Z,3.30
2022-09-06T07:17:30.866Z,4.10
2022-09-06T07:20:15.010Z,4.57
2022-09-06T07:22:43.846Z,3.80
2022-09-06T07:25:15.479Z,3.97
2022-09-06T07:30:20.705Z,3.03
2022-09-06T07:32:50.277Z,3.63
2022-09-06T07:35:20.446Z,4.20
2022-09-06T07:37:58.911Z,4.07
2022-09-06T07:40:27.843Z,3.43
2022-09-06T07:42:58.054Z,3.97
2022-09-06T07:45:26.432Z,6.00
2022-09-06T07:47:59.952Z,3.67
2022-09-06T07:53:30.646Z,3.40
2022-09-06T07:56:00.464Z,4.43
2022-09-06T07:58:29.043Z,3.33
2022-09-06T08:01:15.934Z,4.67
2022-09-06T08:03:46.338Z,3.60
2022-09-06T08:06:14.742Z,3.37
2022-09-06T08:08:58.658Z,3.87
2022-09-06T08:11:29.188Z,3.87
2022-09-06T08:13:58.781Z,4.00
2022-09-06T08:16:29.152Z,3.70
2022-09-06T08:19:00.120Z,3.17
2022-09-06T08:21:30.449Z,3.40
2022-09-06T08:23:59.985Z,2.60
2022-09-06T08:26:29.760Z,3.27
2022-09-06T08:29:00.285Z,3.47
2022-09-06T08:31:30.406Z,3.23
2022-09-06T08:34:01.246Z,3.23
2022-09-06T08:36:30.767Z,3.40
2022-09-06T08:38:59.172Z,3.40
2022-09-06T08:41:30.426Z,3.20
2022-09-06T08:46:58.597Z,3.03
2022-09-06T08:49:31.492Z,3.20
2022-09-06T08:52:24.712Z,3.40
2022-09-06T08:54:59.920Z,3.60
2022-09-06T08:57:51.353Z,3.03
2022-09-06T09:00:21.483Z,2.97
2022-09-06T09:02:55.178Z,3.47
2022-09-06T09:05:28.726Z,2.70
2022-09-06T09:08:07.507Z,3.40
2022-09-06T09:10:42.725Z,3.50
2022-09-06T09:13:19.961Z,3.20
2022-09-06T09:15:48.183Z,3.20
2022-09-06T09:18:22.818Z,3.60
2022-09-06T09:20:52.402Z,3.27
2022-09-06T09:23:20.576Z,3.20
2022-09-06T09:25:49.887Z,3.23
2022-09-06T09:28:20.765Z,2.95
2022-09-06T09:30:51.353Z,4.03
2022-09-06T09:33:28.116Z,2.72
2022-09-06T09:35:59.723Z,2.67
2022-09-06T09:38:30.254Z,2.77
2022-09-06T09:41:07.985Z,3.20
2022-09-06T09:43:39.091Z,2.85
2022-09-06T09:46:17.418Z,2.60
2022-09-06T09:49:00.974Z,3.30
2022-09-06T09:51:31.690Z,3.03
2022-09-06T09:54:02.834Z,2.93
2022-09-06T09:56:44.947Z,2.40
2022-09-06T09:59:25.121Z,3.10
2022-09-06T10:01:56.965Z,3.07
2022-09-06T10:04:46.103Z,2.70
2022-09-06T10:07:18.064Z,2.63
2022-09-06T10:09:48.948Z,2.60
2022-09-06T10:12:20.107Z,2.90
2022-09-06T10:14:49.692Z,2.60
2022-09-06T10:17:23.227Z,2.47
2022-09-06T10:19:51.240Z,3.33
2022-09-06T10:22:31.367Z,3.57
2022-09-06T10:25:22.943Z,2.90
2022-09-06T10:28:11.483Z,2.83
2022-09-06T10:30:46.026Z,2.83
2022-09-06T10:33:26.526Z,2.43
2022-09-06T10:35:58.728Z,2.80
2022-09-06T10:38:42.862Z,2.77
2022-09-06T10:41:32.934Z,2.67
2022-09-06T10:44:11.554Z,3.50
2022-09-06T10:46:44.767Z,2.60
2022-09-06T10:49:17.713Z,2.47
2022-09-06T10:51:50.110Z,2.60
2022-09-06T10:54:23.430Z,2.80
2022-09-06T10:56:56.853Z,3.07
2022-09-06T10:59:37.283Z,2.83
2022-09-06T11:02:17.578Z,2.70
2022-09-06T11:07:41.459Z,2.70
2022-09-06T11:10:17.823Z,2.80
2022-09-06T11:12:51.579Z,2.50
2022-09-06T11:15:22.422Z,2.97
2022-09-06T11:17:56.376Z,2.60
2022-09-06T11:20:32.755Z,2.97
2022-09-06T11:23:20.459Z,2.40
2022-09-06T11:26:21.772Z,2.40
2022-09-06T11:28:54.485Z,3.00
2022-09-06T11:34:21.184Z,2.73
2022-09-06T11:36:50.788Z,2.97
2022-09-06T11:42:43.247Z,2.70
2022-09-06T11:45:21.846Z,2.80
2022-09-06T11:47:51.655Z,2.70
2022-09-06T11:50:28.054Z,3.43
2022-09-06T11:53:15.478Z,2.77
2022-09-06T11:55:45.860Z,3.00
2022-09-06T11:58:27.781Z,2.70
2022-09-06T12:01:29.340Z,2.37
2022-09-06T12:04:07.978Z,2.13
2022-09-06T12:06:39.623Z,2.00
2022-09-06T12:09:30.218Z,2.90
2022-09-06T12:11:59.646Z,2.97
2022-09-06T12:14:40.387Z,2.33
2022-09-06T12:17:46.527Z,2.40
2022-09-06T12:20:53.014Z,3.00
2022-09-06T12:23:43.463Z,2.30
2022-09-06T12:26:12.857Z,2.03
2022-09-06T12:28:47.248Z,2.05
2022-09-06T12:31:30.429Z,2.47
2022-09-06T12:33:59.476Z,2.42
2022-09-06T12:36:31.230Z,2.40
2022-09-06T12:39:01.791Z,3.00
2022-09-06T12:41:32.707Z,3.15
2022-09-06T12:44:02.962Z,2.40
2022-09-06T12:46:32.676Z,2.45
2022-09-06T12:49:03.616Z,2.30
2022-09-06T12:51:32.175Z,2.58
2022-09-06T12:54:04.922Z,2.58
2022-09-06T12:56:35.107Z,2.40
2022-09-06T12:59:14.626Z,2.10
2022-09-06T13:01:47.679Z,1.80
2022-09-06T13:04:23.472Z,1.80
2022-09-06T13:06:51.904Z,1.80
2022-09-06T13:09:22.793Z,1.60
2022-09-06T13:11:53.276Z,1.70
2022-09-06T13:14:24.501Z,2.10
2022-09-06T13:16:57.070Z,2.00
2022-09-06T13:19:33.968Z,1.42
2022-09-06T13:22:03.835Z,2.30
2022-09-06T13:24:47.312Z,1.70
2022-09-06T13:27:25.995Z,1.70
2022-09-06T13:29:59.494Z,1.92
2022-09-06T13:32:28.447Z,1.90
2022-09-06T13:34:58.581Z,1.33
2022-09-06T13:37:28.974Z,1.80
2022-09-06T13:39:59.445Z,1.83
2022-09-06T13:42:30.451Z,2.20
2022-09-06T13:45:02.173Z,1.70
2022-09-06T13:47:30.948Z,1.53
2022-09-06T13:50:00.436Z,1.70
2022-09-06T13:52:28.791Z,1.80
2022-09-06T13:54:59.186Z,2.03
2022-09-06T13:57:27.220Z,1.73
2022-09-06T13:59:55.256Z,1.90
2022-09-06T14:02:25.042Z,1.80
2022-09-06T14:04:53.195Z,1.90
2022-09-06T14:07:21.363Z,1.70
2022-09-06T14:09:51.217Z,2.03
2022-09-06T14:12:20.708Z,1.70
2022-09-06T14:14:51.427Z,2.50
2022-09-06T14:17:20.047Z,1.80
2022-09-06T14:19:49.532Z,2.22
2022-09-06T14:22:17.609Z,2.20
2022-09-06T14:24:45.671Z,1.80
2022-09-06T14:27:14.018Z,2.30
2022-09-06T14:29:43.530Z,1.88
2022-09-06T14:32:11.704Z,1.52
2022-09-06T14:34:39.776Z,1.42
2022-09-06T14:37:12.871Z,1.88
2022-09-06T14:39:41.618Z,1.70
2022-09-06T14:42:09.852Z,1.10
2022-09-06T14:44:38.084Z,1.70
2022-09-06T14:47:08.644Z,1.80
2022-09-06T14:49:37.041Z,1.70
2022-09-06T14:52:05.181Z,2.00
2022-09-06T14:54:33.349Z,1.90
2022-09-06T14:57:01.447Z,2.10
2022-09-06T14:59:29.595Z,2.20
2022-09-06T15:01:57.838Z,2.30
2022-09-06T15:04:27.682Z,2.37
2022-09-06T15:06:55.757Z,1.87
2022-09-06T15:09:24.434Z,2.10
2022-09-06T15:11:53.600Z,2.20
2022-09-06T15:14:23.101Z,1.60
2022-09-06T15:16:55.832Z,1.97
2022-09-06T15:19:25.049Z,2.13
2022-09-06T15:21:55.297Z,1.60
2022-09-06T15:24:23.574Z,1.90
2022-09-06T15:26:51.682Z,1.53
2022-09-06T15:29:20.568Z,1.30
2022-09-06T15:31:51.281Z,1.37
2022-09-06T15:34:20.028Z,1.43
2022-09-06T15:36:51.427Z,1.60
2022-09-06T15:39:23.945Z,1.67
2022-09-06T15:41:54.112Z,2.10
2022-09-06T15:44:22.477Z,1.57
2022-09-06T15:46:52.055Z,1.53
2022-09-06T15:49:28.364Z,1.40
2022-09-06T15:51:58.263Z,1.30
2022-09-06T15:54:42.672Z,1.60
2022-09-06T15:57:10.828Z,1.30
2022-09-06T15:59:40.421Z,1.13
2022-09-06T16:02:08.576Z,1.77
2022-09-06T16:04:36.863Z,1.47
2022-09-06T16:07:04.900Z,1.43
2022-09-06T16:09:34.403Z,1.93
2022-09-06T16:12:02.399Z,1.53
2022-09-06T16:14:30.574Z,1.40
2022-09-06T16:16:58.637Z,1.70
2022-09-06T16:19:27.308Z,1.50
2022-09-06T16:21:55.299Z,1.83
2022-09-06T16:24:23.672Z,1.70
2022-09-06T16:26:53.154Z,1.70
2022-09-06T16:29:21.192Z,2.53
2022-09-06T16:31:49.571Z,1.97
2022-09-06T16:34:17.790Z,1.87
2022-09-06T16:36:45.971Z,1.87
2022-09-06T16:39:14.073Z,2.07
2022-09-06T16:41:43.540Z,2.80
2022-09-06T16:44:16.737Z,1.77
2022-09-06T16:46:46.619Z,1.83
2022-09-06T16:49:17.014Z,1.80
2022-09-06T16:51:45.750Z,1.90
2022-09-06T16:54:15.492Z,1.50
2022-09-06T16:56:44.371Z,1.50
2022-09-06T16:59:17.500Z,1.90
2022-09-06T17:01:46.280Z,1.63
2022-09-06T17:04:15.138Z,1.70
2022-09-06T17:06:45.733Z,1.63
2022-09-06T17:09:14.872Z,1.93
2022-09-06T17:11:42.989Z,1.90
2022-09-06T17:14:11.205Z,1.60
2022-09-06T17:16:58.149Z,2.10
2022-09-06T17:19:26.691Z,1.70
2022-09-06T17:21:54.899Z,1.83
2022-09-06T17:24:22.996Z,2.40
2022-09-06T17:26:51.117Z,3.30
2022-09-06T17:29:19.553Z,3.40
2022-09-06T17:31:49.608Z,2.33
2022-09-06T17:34:17.880Z,3.27
2022-09-06T17:36:45.965Z,2.83
2022-09-06T17:39:17.694Z,2.13
2022-09-06T17:41:48.451Z,2.80
2022-09-06T17:44:20.256Z,2.00
2022-09-06T17:47:09.481Z,1.77
2022-09-06T17:49:38.147Z,2.20
2022-09-06T17:52:06.264Z,2.13
2022-09-06T17:54:34.356Z,2.10
2022-09-06T17:57:02.412Z,2.17
2022-09-06T17:59:35.156Z,1.73
2022-09-06T18:02:05.586Z,2.13
2022-09-06T18:04:34.002Z,2.23
2022-09-06T18:07:02.218Z,1.80
2022-09-06T18:09:30.462Z,1.73
2022-09-06T18:11:59.013Z,1.90
2022-09-06T18:14:28.892Z,2.47
2022-09-06T18:16:57.398Z,1.70
2022-09-06T18:19:27.559Z,1.87
2022-09-06T18:21:57.241Z,1.97
2022-09-06T18:24:25.980Z,2.07
2022-09-06T18:26:54.154Z,1.70
2022-09-06T18:29:22.356Z,1.83
2022-09-06T18:31:53.668Z,1.93
2022-09-06T18:34:22.369Z,2.43
2022-09-06T18:36:54.562Z,1.87
2022-09-06T18:39:22.647Z,2.00
2022-09-06T18:42:04.545Z,2.30
2022-09-06T18:44:34.060Z,2.40
2022-09-06T18:47:03.640Z,2.27
2022-09-06T18:49:32.567Z,2.40
2022-09-06T18:52:02.566Z,2.50
2022-09-06T18:54:31.151Z,2.40
2022-09-06T18:56:59.996Z,1.90
2022-09-06T18:59:28.671Z,2.23
2022-09-06T19:01:57.012Z,2.00
2022-09-06T19:04:25.175Z,2.20
2022-09-06T19:06:53.223Z,2.50
2022-09-06T19:09:23.254Z,2.20
2022-09-06T19:11:52.901Z,2.10
2022-09-06T19:14:21.898Z,1.70
2022-09-06T19:16:50.806Z,2.53
2022-09-06T19:19:18.890Z,2.50
2022-09-06T19:21:46.950Z,2.23
2022-09-06T19:24:16.055Z,1.80
2022-09-06T19:26:46.717Z,2.20
2022-09-06T19:29:17.526Z,2.40
2022-09-06T19:31:47.261Z,2.50
2022-09-06T19:34:16.265Z,3.10
2022-09-06T19:36:45.560Z,2.40
2022-09-06T19:39:17.231Z,3.60
2022-09-06T19:41:47.811Z,2.53
2022-09-06T19:44:17.048Z,4.53
2022-09-06T19:46:47.032Z,3.07
2022-09-06T19:49:16.949Z,2.90
2022-09-06T19:51:46.641Z,2.33
2022-09-06T19:54:15.767Z,2.50
2022-09-06T19:56:44.808Z,2.77
2022-09-06T19:59:16.056Z,2.50
2022-09-06T20:01:45.519Z,2.70
2022-09-06T20:04:14.813Z,2.30
2022-09-06T20:06:43.204Z,2.10
2022-09-06T20:09:12.074Z,2.07
2022-09-06T20:11:41.707Z,2.07
2022-09-06T20:14:10.324Z,2.10
2022-09-06T20:16:42.150Z,2.50
2022-09-06T20:19:12.278Z,2.70
2022-09-06T20:21:40.373Z,1.87
2022-09-06T20:24:08.717Z,3.23
2022-09-06T20:26:36.892Z,2.47
2022-09-06T20:29:06.763Z,2.63
2022-09-06T20:31:37.624Z,2.47
2022-09-06T20:34:08.603Z,2.73
2022-09-06T20:36:37.248Z,2.37
2022-09-06T20:39:05.431Z,2.93
2022-09-06T20:41:34.558Z,2.80
2022-09-06T20:44:02.851Z,2.63
2022-09-06T20:46:33.270Z,2.30
2022-09-06T20:49:04.454Z,2.37
2022-09-06T20:51:35.208Z,2.53
2022-09-06T20:54:04.996Z,2.80
2022-09-06T20:56:36.805Z,2.13
2022-09-06T20:59:06.722Z,2.23
2022-09-06T21:01:36.554Z,1.93
2022-09-06T21:04:06.812Z,2.20
2022-09-06T21:06:37.375Z,2.27
2022-09-06T21:09:07.542Z,2.00
2022-09-06T21:11:35.888Z,1.73
2022-09-06T21:14:04.289Z,2.07
2022-09-06T21:16:32.891Z,1.87
2022-09-06T21:19:02.219Z,1.80
2022-09-06T21:21:32.141Z,1.93
2022-09-06T21:24:03.880Z,2.70
2022-09-06T21:26:31.953Z,1.90
2022-09-06T21:29:00.250Z,2.40
2022-09-06T21:31:30.105Z,2.40
2022-09-06T21:33:59.838Z,2.20
2022-09-06T21:36:30.213Z,2.50
2022-09-06T21:39:01.105Z,2.20
2022-09-06T21:41:32.014Z,2.30
2022-09-06T21:44:01.713Z,2.57
2022-09-06T21:46:35.546Z,2.10
2022-09-06T21:49:05.434Z,2.40
2022-09-06T21:51:34.064Z,1.80
2022-09-06T21:54:05.098Z,2.40
2022-09-06T21:56:35.909Z,2.23
2022-09-06T21:59:04.807Z,2.43
2022-09-06T22:01:34.999Z,2.17
2022-09-06T22:04:04.047Z,2.40
2022-09-06T22:06:33.477Z,2.23
2022-09-06T22:09:07.728Z,2.07
2022-09-06T22:11:38.678Z,1.97
2022-09-06T22:14:09.297Z,2.00
2022-09-06T22:16:38.815Z,1.83
2022-09-06T22:19:09.193Z,1.73
2022-09-06T22:21:38.802Z,2.40
2022-09-06T22:24:08.857Z,1.90
2022-09-06T22:26:39.910Z,2.70
2022-09-06T22:29:09.456Z,2.67
2022-09-06T22:31:38.311Z,2.30
2022-09-06T22:34:06.606Z,2.40
2022-09-06T22:36:34.625Z,2.40
2022-09-06T22:39:02.768Z,2.87
2022-09-06T22:41:32.285Z,2.50
2022-09-06T22:44:02.350Z,1.80
2022-09-06T22:46:31.004Z,2.30
2022-09-06T22:48:59.250Z,2.37
2022-09-06T22:51:27.441Z,2.30
2022-09-06T22:53:55.689Z,2.07
2022-09-06T22:56:24.448Z,2.40
2022-09-06T22:58:52.537Z,2.30
2022-09-06T23:01:22.059Z,2.27
2022-09-06T23:03:50.824Z,1.90
2022-09-06T23:06:19.355Z,2.70
2022-09-06T23:08:47.481Z,2.50
2022-09-06T23:11:18.734Z,2.10
2022-09-06T23:13:47.202Z,1.97
2022-09-06T23:16:17.507Z,1.70
2022-09-06T23:18:47.324Z,2.47
2022-09-06T23:21:17.228Z,2.20
2022-09-06T23:23:45.688Z,1.93
2022-09-06T23:26:15.760Z,2.13
2022-09-06T23:28:44.147Z,1.93
2022-09-06T23:31:13.738Z,1.90
2022-09-06T23:33:42.777Z,1.97
2022-09-06T23:36:14.576Z,1.80
2022-09-06T23:38:43.312Z,2.17
2022-09-06T23:41:12.342Z,2.00
2022-09-06T23:43:41.964Z,2.17
2022-09-06T23:46:10.808Z,2.13
2022-09-06T23:48:39.263Z,2.27
2022-09-06T23:51:08.050Z,1.60
2022-09-06T23:53:37.924Z,2.30
2022-09-06T23:56:06.935Z,2.10
2022-09-06T23:58:35.484Z,2.20
